Parks, Arizona
Current Conditions -  °F | °C
As of 4:57 PM on Friday 24 Oct 2014 (Local Time) from KFLG Reporting Station
Clear Clear  
Wind Chill: 19°   Ceiling: Unl
Heat Index: 19°   Visibility: 10mi
Dew Point: -4°   Wind: 8mph
Humidity: 20%   Direction: 210°SSW
Pressure: 30.34"   Gusts: NA
Location:  35.26°N, 111.95°W
Report Text: KFLG 242357Z 21007KT 10SM CLR 19/M04 A3034 RMK AO2 SLP210 T01941044 10217 20194 58004
Loading
Personal Weather Stations






























Interactive Weather Map
Tropical Storm Tracking
New forecast layout! Learn more

10-Day Weather Forecast

Advertisements
Track Severe Weather on mobile